sensor_id;sensor_type;location;lat;lon;timestamp;temperature;humidity
8231;DHT22;4156;50.908;6.974;2022-12-07T00:01:33;6.60;99.90
8231;DHT22;4156;50.908;6.974;2022-12-07T00:04:01;6.60;99.90
8231;DHT22;4156;50.908;6.974;2022-12-07T00:06:31;6.60;99.90
8231;DHT22;4156;50.908;6.974;2022-12-07T00:08:57;6.60;99.90
8231;DHT22;4156;50.908;6.974;2022-12-07T00:11:23;6.60;99.90
8231;DHT22;4156;50.908;6.974;2022-12-07T00:13:55;6.60;99.90
8231;DHT22;4156;50.908;6.974;2022-12-07T00:16:22;6.60;99.90
8231;DHT22;4156;50.908;6.974;2022-12-07T00:18:48;6.60;99.90
8231;DHT22;4156;50.908;6.974;2022-12-07T00:21:16;6.60;99.90
8231;DHT22;4156;50.908;6.974;2022-12-07T00:23:44;6.60;99.90
8231;DHT22;4156;50.908;6.974;2022-12-07T00:26:16;6.60;99.90
8231;DHT22;4156;50.908;6.974;2022-12-07T00:28:51;6.60;99.90
8231;DHT22;4156;50.908;6.974;2022-12-07T00:31:18;6.60;99.90
8231;DHT22;4156;50.908;6.974;2022-12-07T00:33:44;6.60;99.90
8231;DHT22;4156;50.908;6.974;2022-12-07T00:36:12;6.60;99.90
8231;DHT22;4156;50.908;6.974;2022-12-07T00:38:39;6.60;99.90
8231;DHT22;4156;50.908;6.974;2022-12-07T00:41:09;6.60;99.90
8231;DHT22;4156;50.908;6.974;2022-12-07T00:43:35;6.60;99.90
8231;DHT22;4156;50.908;6.974;2022-12-07T00:46:00;6.60;99.90
8231;DHT22;4156;50.908;6.974;2022-12-07T00:48:26;6.60;99.90
8231;DHT22;4156;50.908;6.974;2022-12-07T00:50:52;6.60;99.90
8231;DHT22;4156;50.908;6.974;2022-12-07T00:53:18;6.60;99.90
8231;DHT22;4156;50.908;6.974;2022-12-07T00:55:44;6.60;99.90
8231;DHT22;4156;50.908;6.974;2022-12-07T00:58:10;6.60;99.90
8231;DHT22;4156;50.908;6.974;2022-12-07T01:00:37;6.60;99.90
8231;DHT22;4156;50.908;6.974;2022-12-07T01:03:04;6.60;99.90
8231;DHT22;4156;50.908;6.974;2022-12-07T01:05:30;6.60;99.90
8231;DHT22;4156;50.908;6.974;2022-12-07T01:07:55;6.60;99.90
8231;DHT22;4156;50.908;6.974;2022-12-07T01:10:21;6.60;99.90
8231;DHT22;4156;50.908;6.974;2022-12-07T01:12:47;6.60;99.90
8231;DHT22;4156;50.908;6.974;2022-12-07T01:15:12;6.60;99.90
8231;DHT22;4156;50.908;6.974;2022-12-07T01:17:38;6.60;99.90
8231;DHT22;4156;50.908;6.974;2022-12-07T01:20:04;6.60;99.90
8231;DHT22;4156;50.908;6.974;2022-12-07T01:22:30;6.60;99.90
8231;DHT22;4156;50.908;6.974;2022-12-07T01:24:55;6.60;99.90
8231;DHT22;4156;50.908;6.974;2022-12-07T01:27:21;6.60;99.90
8231;DHT22;4156;50.908;6.974;2022-12-07T01:29:46;6.70;99.90
8231;DHT22;4156;50.908;6.974;2022-12-07T01:32:12;6.70;99.90
8231;DHT22;4156;50.908;6.974;2022-12-07T01:34:37;6.70;99.90
8231;DHT22;4156;50.908;6.974;2022-12-07T01:37:03;6.70;99.90
8231;DHT22;4156;50.908;6.974;2022-12-07T01:39:29;6.70;99.90
8231;DHT22;4156;50.908;6.974;2022-12-07T01:41:54;6.70;99.90
8231;DHT22;4156;50.908;6.974;2022-12-07T01:44:23;6.70;99.90
8231;DHT22;4156;50.908;6.974;2022-12-07T01:46:56;6.70;99.90
8231;DHT22;4156;50.908;6.974;2022-12-07T01:51:55;6.70;99.90
8231;DHT22;4156;50.908;6.974;2022-12-07T01:54:22;6.70;99.90
8231;DHT22;4156;50.908;6.974;2022-12-07T01:56:52;6.70;99.90
8231;DHT22;4156;50.908;6.974;2022-12-07T01:59:22;6.70;99.90
8231;DHT22;4156;50.908;6.974;2022-12-07T02:01:50;6.70;99.90
8231;DHT22;4156;50.908;6.974;2022-12-07T02:04:15;6.70;99.90
8231;DHT22;4156;50.908;6.974;2022-12-07T02:06:41;6.70;99.90
8231;DHT22;4156;50.908;6.974;2022-12-07T02:09:08;6.70;99.90
8231;DHT22;4156;50.908;6.974;2022-12-07T02:11:33;6.70;99.90
8231;DHT22;4156;50.908;6.974;2022-12-07T02:13:59;6.70;99.90
8231;DHT22;4156;50.908;6.974;2022-12-07T02:16:35;6.70;99.90
8231;DHT22;4156;50.908;6.974;2022-12-07T02:25:04;6.70;99.90
8231;DHT22;4156;50.908;6.974;2022-12-07T02:30:29;6.70;99.90
8231;DHT22;4156;50.908;6.974;2022-12-07T02:33:19;6.70;99.90
8231;DHT22;4156;50.908;6.974;2022-12-07T02:36:17;6.70;99.90
8231;DHT22;4156;50.908;6.974;2022-12-07T02:38:49;6.70;99.90
8231;DHT22;4156;50.908;6.974;2022-12-07T02:41:30;6.70;99.90
8231;DHT22;4156;50.908;6.974;2022-12-07T02:44:02;6.70;99.90
8231;DHT22;4156;50.908;6.974;2022-12-07T02:46:33;6.70;99.90
8231;DHT22;4156;50.908;6.974;2022-12-07T02:49:00;6.60;99.90
8231;DHT22;4156;50.908;6.974;2022-12-07T02:51:30;6.60;99.90
8231;DHT22;4156;50.908;6.974;2022-12-07T02:53:55;6.70;99.90
8231;DHT22;4156;50.908;6.974;2022-12-07T03:07:49;6.60;99.90
8231;DHT22;4156;50.908;6.974;2022-12-07T03:10:01;6.60;99.90
8231;DHT22;4156;50.908;6.974;2022-12-07T03:15:27;6.60;99.90
8231;DHT22;4156;50.908;6.974;2022-12-07T03:17:58;6.70;99.90
8231;DHT22;4156;50.908;6.974;2022-12-07T03:20:25;6.70;99.90
8231;DHT22;4156;50.908;6.974;2022-12-07T03:22:54;6.70;99.90
8231;DHT22;4156;50.908;6.974;2022-12-07T03:25:20;6.70;99.90
8231;DHT22;4156;50.908;6.974;2022-12-07T03:27:53;6.70;99.90
8231;DHT22;4156;50.908;6.974;2022-12-07T03:30:23;6.70;99.90
8231;DHT22;4156;50.908;6.974;2022-12-07T03:33:12;6.70;99.90
8231;DHT22;4156;50.908;6.974;2022-12-07T03:35:47;6.70;99.90
8231;DHT22;4156;50.908;6.974;2022-12-07T03:38:25;6.70;99.90
8231;DHT22;4156;50.908;6.974;2022-12-07T03:40:54;6.70;99.90
8231;DHT22;4156;50.908;6.974;2022-12-07T03:43:22;6.70;99.90
8231;DHT22;4156;50.908;6.974;2022-12-07T03:46:11;6.70;99.90
8231;DHT22;4156;50.908;6.974;2022-12-07T03:48:42;6.70;99.90
8231;DHT22;4156;50.908;6.974;2022-12-07T03:51:22;6.70;99.90
8231;DHT22;4156;50.908;6.974;2022-12-07T03:54:04;6.70;99.90
8231;DHT22;4156;50.908;6.974;2022-12-07T03:56:31;6.70;99.90
8231;DHT22;4156;50.908;6.974;2022-12-07T03:58:57;6.70;99.90
8231;DHT22;4156;50.908;6.974;2022-12-07T04:01:24;6.70;99.90
8231;DHT22;4156;50.908;6.974;2022-12-07T04:03:49;6.70;99.90
8231;DHT22;4156;50.908;6.974;2022-12-07T04:06:15;6.70;99.90
8231;DHT22;4156;50.908;6.974;2022-12-07T04:08:41;6.70;99.90
8231;DHT22;4156;50.908;6.974;2022-12-07T04:11:06;6.70;99.90
8231;DHT22;4156;50.908;6.974;2022-12-07T04:13:32;6.70;99.90
8231;DHT22;4156;50.908;6.974;2022-12-07T04:16:17;6.70;99.90
8231;DHT22;4156;50.908;6.974;2022-12-07T04:18:43;6.70;99.90
8231;DHT22;4156;50.908;6.974;2022-12-07T04:21:08;6.70;99.90
8231;DHT22;4156;50.908;6.974;2022-12-07T04:23:33;6.70;99.90
8231;DHT22;4156;50.908;6.974;2022-12-07T04:25:59;6.70;99.90
8231;DHT22;4156;50.908;6.974;2022-12-07T04:28:25;6.70;99.90
8231;DHT22;4156;50.908;6.974;2022-12-07T04:30:50;6.70;99.90
8231;DHT22;4156;50.908;6.974;2022-12-07T04:33:16;6.70;99.90
8231;DHT22;4156;50.908;6.974;2022-12-07T04:35:42;6.70;99.90
8231;DHT22;4156;50.908;6.974;2022-12-07T04:38:08;6.70;99.90
8231;DHT22;4156;50.908;6.974;2022-12-07T04:40:34;6.70;99.90
8231;DHT22;4156;50.908;6.974;2022-12-07T04:42:59;6.70;99.90
8231;DHT22;4156;50.908;6.974;2022-12-07T04:45:25;6.70;99.90
8231;DHT22;4156;50.908;6.974;2022-12-07T04:47:50;6.70;99.90
8231;DHT22;4156;50.908;6.974;2022-12-07T04:50:16;6.70;99.90
8231;DHT22;4156;50.908;6.974;2022-12-07T04:52:41;6.70;99.90
8231;DHT22;4156;50.908;6.974;2022-12-07T04:55:07;6.70;99.90
8231;DHT22;4156;50.908;6.974;2022-12-07T04:57:33;6.70;99.90
8231;DHT22;4156;50.908;6.974;2022-12-07T04:59:58;6.70;99.90
8231;DHT22;4156;50.908;6.974;2022-12-07T05:02:24;6.70;99.90
8231;DHT22;4156;50.908;6.974;2022-12-07T05:04:49;6.70;99.90
8231;DHT22;4156;50.908;6.974;2022-12-07T05:07:14;6.70;99.90
8231;DHT22;4156;50.908;6.974;2022-12-07T05:09:40;6.60;99.90
8231;DHT22;4156;50.908;6.974;2022-12-07T05:12:05;6.60;99.90
8231;DHT22;4156;50.908;6.974;2022-12-07T05:14:31;6.60;99.90
8231;DHT22;4156;50.908;6.974;2022-12-07T05:16:56;6.60;99.90
8231;DHT22;4156;50.908;6.974;2022-12-07T05:19:22;6.60;99.90
8231;DHT22;4156;50.908;6.974;2022-12-07T05:21:48;6.60;99.90
8231;DHT22;4156;50.908;6.974;2022-12-07T05:24:14;6.60;99.90
8231;DHT22;4156;50.908;6.974;2022-12-07T05:26:41;6.60;99.90
8231;DHT22;4156;50.908;6.974;2022-12-07T05:29:06;6.60;99.90
8231;DHT22;4156;50.908;6.974;2022-12-07T05:31:32;6.60;99.90
8231;DHT22;4156;50.908;6.974;2022-12-07T05:33:58;6.70;99.90
8231;DHT22;4156;50.908;6.974;2022-12-07T05:36:23;6.70;99.90
8231;DHT22;4156;50.908;6.974;2022-12-07T05:38:49;6.70;99.90
8231;DHT22;4156;50.908;6.974;2022-12-07T05:41:16;6.70;99.90
8231;DHT22;4156;50.908;6.974;2022-12-07T05:44:00;6.60;99.90
8231;DHT22;4156;50.908;6.974;2022-12-07T05:46:26;6.60;99.90
8231;DHT22;4156;50.908;6.974;2022-12-07T05:48:52;6.60;99.90
8231;DHT22;4156;50.908;6.974;2022-12-07T05:51:18;6.60;99.90
8231;DHT22;4156;50.908;6.974;2022-12-07T05:53:44;6.60;99.90
8231;DHT22;4156;50.908;6.974;2022-12-07T05:56:09;6.60;99.90
8231;DHT22;4156;50.908;6.974;2022-12-07T05:58:35;6.60;99.90
8231;DHT22;4156;50.908;6.974;2022-12-07T06:01:19;6.60;99.90
8231;DHT22;4156;50.908;6.974;2022-12-07T06:03:45;6.60;99.90
8231;DHT22;4156;50.908;6.974;2022-12-07T06:06:10;6.60;99.90
8231;DHT22;4156;50.908;6.974;2022-12-07T06:08:36;6.60;99.90
8231;DHT22;4156;50.908;6.974;2022-12-07T06:11:01;6.60;99.90
8231;DHT22;4156;50.908;6.974;2022-12-07T06:13:46;6.60;99.90
8231;DHT22;4156;50.908;6.974;2022-12-07T06:16:11;6.60;99.90
8231;DHT22;4156;50.908;6.974;2022-12-07T06:18:37;6.60;99.90
8231;DHT22;4156;50.908;6.974;2022-12-07T06:21:02;6.60;99.90
8231;DHT22;4156;50.908;6.974;2022-12-07T06:23:28;6.60;99.90
8231;DHT22;4156;50.908;6.974;2022-12-07T06:25:53;6.60;99.90
8231;DHT22;4156;50.908;6.974;2022-12-07T06:28:19;6.60;99.90
8231;DHT22;4156;50.908;6.974;2022-12-07T06:30:44;6.50;99.90
8231;DHT22;4156;50.908;6.974;2022-12-07T06:33:10;6.50;99.90
8231;DHT22;4156;50.908;6.974;2022-12-07T06:35:35;6.50;99.90
8231;DHT22;4156;50.908;6.974;2022-12-07T06:38:01;6.50;99.90
8231;DHT22;4156;50.908;6.974;2022-12-07T06:40:26;6.50;99.90
8231;DHT22;4156;50.908;6.974;2022-12-07T06:42:51;6.50;99.90
8231;DHT22;4156;50.908;6.974;2022-12-07T06:45:17;6.50;99.90
8231;DHT22;4156;50.908;6.974;2022-12-07T06:47:42;6.50;99.90
8231;DHT22;4156;50.908;6.974;2022-12-07T06:50:08;6.50;99.90
8231;DHT22;4156;50.908;6.974;2022-12-07T06:52:34;6.50;99.90
8231;DHT22;4156;50.908;6.974;2022-12-07T06:55:00;6.50;99.90
8231;DHT22;4156;50.908;6.974;2022-12-07T06:57:26;6.50;99.90
8231;DHT22;4156;50.908;6.974;2022-12-07T06:59:51;6.50;99.90
8231;DHT22;4156;50.908;6.974;2022-12-07T07:02:17;6.50;99.90
8231;DHT22;4156;50.908;6.974;2022-12-07T07:04:43;6.60;99.90
8231;DHT22;4156;50.908;6.974;2022-12-07T07:07:08;6.60;99.90
8231;DHT22;4156;50.908;6.974;2022-12-07T07:09:34;6.60;99.90
8231;DHT22;4156;50.908;6.974;2022-12-07T07:11:59;6.60;99.90
8231;DHT22;4156;50.908;6.974;2022-12-07T07:14:25;6.60;99.90
8231;DHT22;4156;50.908;6.974;2022-12-07T07:16:51;6.60;99.90
8231;DHT22;4156;50.908;6.974;2022-12-07T07:19:17;6.50;99.90
8231;DHT22;4156;50.908;6.974;2022-12-07T07:21:42;6.50;99.90
8231;DHT22;4156;50.908;6.974;2022-12-07T07:24:08;6.50;99.90
8231;DHT22;4156;50.908;6.974;2022-12-07T07:26:33;6.50;99.90
8231;DHT22;4156;50.908;6.974;2022-12-07T07:28:59;6.50;99.90
8231;DHT22;4156;50.908;6.974;2022-12-07T07:31:24;6.50;99.90
8231;DHT22;4156;50.908;6.974;2022-12-07T07:33:50;6.50;99.90
8231;DHT22;4156;50.908;6.974;2022-12-07T07:36:15;6.50;99.90
8231;DHT22;4156;50.908;6.974;2022-12-07T07:38:41;6.50;99.90
8231;DHT22;4156;50.908;6.974;2022-12-07T07:41:06;6.50;99.90
8231;DHT22;4156;50.908;6.974;2022-12-07T07:43:32;6.50;99.90
8231;DHT22;4156;50.908;6.974;2022-12-07T07:45:57;6.40;99.90
8231;DHT22;4156;50.908;6.974;2022-12-07T07:48:23;6.50;99.90
8231;DHT22;4156;50.908;6.974;2022-12-07T07:50:50;6.60;99.90
8231;DHT22;4156;50.908;6.974;2022-12-07T07:53:16;6.60;99.90
8231;DHT22;4156;50.908;6.974;2022-12-07T07:55:41;6.60;99.90
8231;DHT22;4156;50.908;6.974;2022-12-07T07:58:14;6.60;99.90
8231;DHT22;4156;50.908;6.974;2022-12-07T08:00:40;6.60;99.90
8231;DHT22;4156;50.908;6.974;2022-12-07T08:03:05;6.60;99.90
8231;DHT22;4156;50.908;6.974;2022-12-07T08:05:31;6.60;99.90
8231;DHT22;4156;50.908;6.974;2022-12-07T08:07:57;6.60;99.90
8231;DHT22;4156;50.908;6.974;2022-12-07T08:10:23;6.60;99.90
8231;DHT22;4156;50.908;6.974;2022-12-07T08:12:48;6.60;99.90
8231;DHT22;4156;50.908;6.974;2022-12-07T08:15:32;6.60;99.90
8231;DHT22;4156;50.908;6.974;2022-12-07T08:17:58;6.50;99.90
8231;DHT22;4156;50.908;6.974;2022-12-07T08:20:23;6.50;99.90
8231;DHT22;4156;50.908;6.974;2022-12-07T08:22:49;6.50;99.90
8231;DHT22;4156;50.908;6.974;2022-12-07T08:25:14;6.50;99.90
8231;DHT22;4156;50.908;6.974;2022-12-07T08:27:40;6.50;99.90
8231;DHT22;4156;50.908;6.974;2022-12-07T08:30:06;6.50;99.90
8231;DHT22;4156;50.908;6.974;2022-12-07T08:32:32;6.50;99.90
8231;DHT22;4156;50.908;6.974;2022-12-07T08:34:57;6.50;99.90
8231;DHT22;4156;50.908;6.974;2022-12-07T08:37:22;6.50;99.90
8231;DHT22;4156;50.908;6.974;2022-12-07T08:39:48;6.50;99.90
8231;DHT22;4156;50.908;6.974;2022-12-07T08:42:13;6.60;99.90
8231;DHT22;4156;50.908;6.974;2022-12-07T08:44:39;6.60;99.90
8231;DHT22;4156;50.908;6.974;2022-12-07T08:47:06;6.60;99.90
8231;DHT22;4156;50.908;6.974;2022-12-07T08:49:45;6.60;99.90
8231;DHT22;4156;50.908;6.974;2022-12-07T08:52:11;6.60;99.90
8231;DHT22;4156;50.908;6.974;2022-12-07T08:54:38;6.60;99.90
8231;DHT22;4156;50.908;6.974;2022-12-07T08:57:05;6.60;99.90
8231;DHT22;4156;50.908;6.974;2022-12-07T08:59:33;6.60;99.90
8231;DHT22;4156;50.908;6.974;2022-12-07T09:01:59;6.60;99.90
8231;DHT22;4156;50.908;6.974;2022-12-07T09:04:25;6.60;99.90
8231;DHT22;4156;50.908;6.974;2022-12-07T09:06:50;6.60;99.90
8231;DHT22;4156;50.908;6.974;2022-12-07T09:09:16;6.60;99.90
8231;DHT22;4156;50.908;6.974;2022-12-07T09:11:41;6.70;99.90
8231;DHT22;4156;50.908;6.974;2022-12-07T09:14:07;6.70;99.90
8231;DHT22;4156;50.908;6.974;2022-12-07T09:16:32;6.70;99.90
8231;DHT22;4156;50.908;6.974;2022-12-07T09:18:58;6.70;99.90
8231;DHT22;4156;50.908;6.974;2022-12-07T09:21:24;6.70;99.90
8231;DHT22;4156;50.908;6.974;2022-12-07T09:23:49;6.70;99.90
8231;DHT22;4156;50.908;6.974;2022-12-07T09:26:15;6.70;99.90
8231;DHT22;4156;50.908;6.974;2022-12-07T09:28:40;6.70;99.90
8231;DHT22;4156;50.908;6.974;2022-12-07T09:31:06;6.80;99.90
8231;DHT22;4156;50.908;6.974;2022-12-07T09:33:31;6.80;99.90
8231;DHT22;4156;50.908;6.974;2022-12-07T09:35:58;6.80;99.90
8231;DHT22;4156;50.908;6.974;2022-12-07T09:38:23;6.80;99.90
8231;DHT22;4156;50.908;6.974;2022-12-07T09:40:51;6.80;99.90
8231;DHT22;4156;50.908;6.974;2022-12-07T09:43:20;6.80;99.90
8231;DHT22;4156;50.908;6.974;2022-12-07T09:45:47;6.80;99.90
8231;DHT22;4156;50.908;6.974;2022-12-07T09:48:20;6.80;99.90
8231;DHT22;4156;50.908;6.974;2022-12-07T09:50:47;6.80;99.90
8231;DHT22;4156;50.908;6.974;2022-12-07T09:53:25;6.80;99.90
8231;DHT22;4156;50.908;6.974;2022-12-07T09:55:52;6.80;99.90
8231;DHT22;4156;50.908;6.974;2022-12-07T09:58:26;6.80;99.90
8231;DHT22;4156;50.908;6.974;2022-12-07T10:01:00;6.80;99.90
8231;DHT22;4156;50.908;6.974;2022-12-07T10:03:29;6.90;99.90
8231;DHT22;4156;50.908;6.974;2022-12-07T10:05:55;6.90;99.90
8231;DHT22;4156;50.908;6.974;2022-12-07T10:08:22;6.90;99.90
8231;DHT22;4156;50.908;6.974;2022-12-07T10:10:53;6.90;99.90
8231;DHT22;4156;50.908;6.974;2022-12-07T10:13:36;6.90;99.90
8231;DHT22;4156;50.908;6.974;2022-12-07T10:16:02;6.90;99.90
8231;DHT22;4156;50.908;6.974;2022-12-07T10:18:34;6.90;99.90
8231;DHT22;4156;50.908;6.974;2022-12-07T10:21:19;6.90;99.90
8231;DHT22;4156;50.908;6.974;2022-12-07T10:24:08;6.90;99.90
8231;DHT22;4156;50.908;6.974;2022-12-07T10:29:16;6.90;99.90
8231;DHT22;4156;50.908;6.974;2022-12-07T10:31:43;7.00;99.90
8231;DHT22;4156;50.908;6.974;2022-12-07T10:34:25;7.00;99.90
8231;DHT22;4156;50.908;6.974;2022-12-07T10:36:52;7.00;99.90
8231;DHT22;4156;50.908;6.974;2022-12-07T10:39:20;7.00;99.90
8231;DHT22;4156;50.908;6.974;2022-12-07T10:41:57;7.00;99.90
8231;DHT22;4156;50.908;6.974;2022-12-07T10:44:26;7.00;99.90
8231;DHT22;4156;50.908;6.974;2022-12-07T10:52:42;7.10;99.90
8231;DHT22;4156;50.908;6.974;2022-12-07T10:55:24;7.10;99.90
8231;DHT22;4156;50.908;6.974;2022-12-07T11:09:30;7.10;99.90
8231;DHT22;4156;50.908;6.974;2022-12-07T11:17:36;7.10;99.90
8231;DHT22;4156;50.908;6.974;2022-12-07T11:20:36;7.10;99.90
8231;DHT22;4156;50.908;6.974;2022-12-07T11:31:33;7.20;99.90
8231;DHT22;4156;50.908;6.974;2022-12-07T11:34:21;7.20;99.90
8231;DHT22;4156;50.908;6.974;2022-12-07T11:36:52;7.20;99.90
8231;DHT22;4156;50.908;6.974;2022-12-07T11:39:35;7.20;99.90
8231;DHT22;4156;50.908;6.974;2022-12-07T11:42:24;7.20;99.90
8231;DHT22;4156;50.908;6.974;2022-12-07T11:45:00;7.20;99.90
8231;DHT22;4156;50.908;6.974;2022-12-07T11:47:47;7.20;99.90
8231;DHT22;4156;50.908;6.974;2022-12-07T11:53:44;7.20;99.90
8231;DHT22;4156;50.908;6.974;2022-12-07T12:03:47;7.20;99.90
8231;DHT22;4156;50.908;6.974;2022-12-07T12:06:14;7.20;99.90
8231;DHT22;4156;50.908;6.974;2022-12-07T12:08:47;7.30;99.90
8231;DHT22;4156;50.908;6.974;2022-12-07T12:16:33;7.30;99.90
8231;DHT22;4156;50.908;6.974;2022-12-07T12:19:27;7.20;99.90
8231;DHT22;4156;50.908;6.974;2022-12-07T12:21:56;7.30;99.90
8231;DHT22;4156;50.908;6.974;2022-12-07T12:24:26;7.30;99.90
8231;DHT22;4156;50.908;6.974;2022-12-07T12:27:02;7.30;99.90
8231;DHT22;4156;50.908;6.974;2022-12-07T12:29:38;7.30;99.90
8231;DHT22;4156;50.908;6.974;2022-12-07T12:42:57;7.30;99.90
8231;DHT22;4156;50.908;6.974;2022-12-07T12:45:28;7.30;99.90
8231;DHT22;4156;50.908;6.974;2022-12-07T12:48:04;7.30;99.90
8231;DHT22;4156;50.908;6.974;2022-12-07T12:50:37;7.30;99.90
8231;DHT22;4156;50.908;6.974;2022-12-07T12:53:25;7.30;99.90
8231;DHT22;4156;50.908;6.974;2022-12-07T13:03:54;7.30;99.90
8231;DHT22;4156;50.908;6.974;2022-12-07T13:08:58;7.30;99.90
8231;DHT22;4156;50.908;6.974;2022-12-07T13:11:36;7.30;99.90
8231;DHT22;4156;50.908;6.974;2022-12-07T13:14:42;7.30;99.90
8231;DHT22;4156;50.908;6.974;2022-12-07T13:19:58;7.30;99.90
8231;DHT22;4156;50.908;6.974;2022-12-07T13:22:46;7.30;99.90
8231;DHT22;4156;50.908;6.974;2022-12-07T13:25:19;7.30;99.90
8231;DHT22;4156;50.908;6.974;2022-12-07T13:27:56;7.30;99.90
8231;DHT22;4156;50.908;6.974;2022-12-07T13:30:23;7.30;99.90
8231;DHT22;4156;50.908;6.974;2022-12-07T13:32:57;7.30;99.90
8231;DHT22;4156;50.908;6.974;2022-12-07T13:35:31;7.30;99.90
8231;DHT22;4156;50.908;6.974;2022-12-07T13:37:58;7.30;99.90
8231;DHT22;4156;50.908;6.974;2022-12-07T13:40:24;7.30;99.90
8231;DHT22;4156;50.908;6.974;2022-12-07T13:43:02;7.30;99.90
8231;DHT22;4156;50.908;6.974;2022-12-07T13:45:30;7.30;99.90
8231;DHT22;4156;50.908;6.974;2022-12-07T13:48:24;7.30;99.90
8231;DHT22;4156;50.908;6.974;2022-12-07T13:50:56;7.30;99.90
8231;DHT22;4156;50.908;6.974;2022-12-07T13:53:22;7.30;99.90
8231;DHT22;4156;50.908;6.974;2022-12-07T13:55:48;7.40;99.90
8231;DHT22;4156;50.908;6.974;2022-12-07T13:58:14;7.40;99.90
8231;DHT22;4156;50.908;6.974;2022-12-07T14:00:40;7.40;99.90
8231;DHT22;4156;50.908;6.974;2022-12-07T14:05:42;7.40;99.90
8231;DHT22;4156;50.908;6.974;2022-12-07T14:10:39;7.40;99.90
8231;DHT22;4156;50.908;6.974;2022-12-07T14:13:28;7.40;99.90
8231;DHT22;4156;50.908;6.974;2022-12-07T14:15:56;7.40;99.90
8231;DHT22;4156;50.908;6.974;2022-12-07T14:18:37;7.40;99.90
8231;DHT22;4156;50.908;6.974;2022-12-07T14:21:17;7.40;99.90
8231;DHT22;4156;50.908;6.974;2022-12-07T14:23:44;7.40;99.90
8231;DHT22;4156;50.908;6.974;2022-12-07T14:26:20;7.40;99.90
8231;DHT22;4156;50.908;6.974;2022-12-07T14:28:46;7.40;99.90
8231;DHT22;4156;50.908;6.974;2022-12-07T14:31:17;7.40;99.90
8231;DHT22;4156;50.908;6.974;2022-12-07T14:33:43;7.40;99.90
8231;DHT22;4156;50.908;6.974;2022-12-07T14:36:10;7.40;99.90
8231;DHT22;4156;50.908;6.974;2022-12-07T14:38:36;7.40;99.90
8231;DHT22;4156;50.908;6.974;2022-12-07T14:41:01;7.40;99.90
8231;DHT22;4156;50.908;6.974;2022-12-07T14:43:45;7.40;99.90
8231;DHT22;4156;50.908;6.974;2022-12-07T14:46:11;7.40;99.90
8231;DHT22;4156;50.908;6.974;2022-12-07T14:48:36;7.40;99.90
8231;DHT22;4156;50.908;6.974;2022-12-07T14:51:03;7.40;99.90
8231;DHT22;4156;50.908;6.974;2022-12-07T14:53:31;7.80;99.90
8231;DHT22;4156;50.908;6.974;2022-12-07T14:55:59;7.40;99.90
8231;DHT22;4156;50.908;6.974;2022-12-07T14:58:24;7.40;99.90
8231;DHT22;4156;50.908;6.974;2022-12-07T15:00:49;7.40;99.90
8231;DHT22;4156;50.908;6.974;2022-12-07T15:03:15;7.40;99.90
8231;DHT22;4156;50.908;6.974;2022-12-07T15:05:41;7.40;99.90
8231;DHT22;4156;50.908;6.974;2022-12-07T15:08:08;7.40;99.90
8231;DHT22;4156;50.908;6.974;2022-12-07T15:10:34;7.40;99.90
8231;DHT22;4156;50.908;6.974;2022-12-07T15:13:04;7.40;99.90
8231;DHT22;4156;50.908;6.974;2022-12-07T15:15:50;7.40;99.90
8231;DHT22;4156;50.908;6.974;2022-12-07T15:18:16;7.40;99.90
8231;DHT22;4156;50.908;6.974;2022-12-07T15:20:41;7.40;99.90
8231;DHT22;4156;50.908;6.974;2022-12-07T15:23:07;7.40;99.90
8231;DHT22;4156;50.908;6.974;2022-12-07T15:25:33;7.40;99.90
8231;DHT22;4156;50.908;6.974;2022-12-07T15:27:59;7.40;99.90
8231;DHT22;4156;50.908;6.974;2022-12-07T15:30:25;7.40;99.90
8231;DHT22;4156;50.908;6.974;2022-12-07T15:32:51;7.40;99.90
8231;DHT22;4156;50.908;6.974;2022-12-07T15:35:18;7.40;99.90
8231;DHT22;4156;50.908;6.974;2022-12-07T15:37:43;7.40;99.90
8231;DHT22;4156;50.908;6.974;2022-12-07T15:40:09;7.40;99.90
8231;DHT22;4156;50.908;6.974;2022-12-07T15:42:36;7.30;99.90
8231;DHT22;4156;50.908;6.974;2022-12-07T15:45:02;7.30;99.90
8231;DHT22;4156;50.908;6.974;2022-12-07T15:47:35;7.30;99.90
8231;DHT22;4156;50.908;6.974;2022-12-07T15:50:03;7.30;99.90
8231;DHT22;4156;50.908;6.974;2022-12-07T15:52:28;7.30;99.90
8231;DHT22;4156;50.908;6.974;2022-12-07T15:54:54;7.30;99.90
8231;DHT22;4156;50.908;6.974;2022-12-07T15:57:19;7.20;99.90
8231;DHT22;4156;50.908;6.974;2022-12-07T15:59:45;7.30;99.90
8231;DHT22;4156;50.908;6.974;2022-12-07T16:02:10;7.30;99.90
8231;DHT22;4156;50.908;6.974;2022-12-07T16:04:36;7.30;99.90
8231;DHT22;4156;50.908;6.974;2022-12-07T16:07:02;7.30;99.90
8231;DHT22;4156;50.908;6.974;2022-12-07T16:09:28;7.20;99.90
8231;DHT22;4156;50.908;6.974;2022-12-07T16:11:54;7.30;99.90
8231;DHT22;4156;50.908;6.974;2022-12-07T16:14:20;7.20;99.90
8231;DHT22;4156;50.908;6.974;2022-12-07T16:16:46;7.20;99.90
8231;DHT22;4156;50.908;6.974;2022-12-07T16:19:12;7.20;99.90
8231;DHT22;4156;50.908;6.974;2022-12-07T16:21:38;7.20;99.90
8231;DHT22;4156;50.908;6.974;2022-12-07T16:24:04;7.20;99.90
8231;DHT22;4156;50.908;6.974;2022-12-07T16:26:30;7.20;99.90
8231;DHT22;4156;50.908;6.974;2022-12-07T16:28:57;7.20;99.90
8231;DHT22;4156;50.908;6.974;2022-12-07T16:31:24;7.20;99.90
8231;DHT22;4156;50.908;6.974;2022-12-07T16:33:53;7.20;99.90
8231;DHT22;4156;50.908;6.974;2022-12-07T16:36:19;7.20;99.90
8231;DHT22;4156;50.908;6.974;2022-12-07T16:38:46;7.10;99.90
8231;DHT22;4156;50.908;6.974;2022-12-07T16:41:12;7.10;99.90
8231;DHT22;4156;50.908;6.974;2022-12-07T16:43:38;7.10;99.90
8231;DHT22;4156;50.908;6.974;2022-12-07T16:46:04;7.10;99.90
8231;DHT22;4156;50.908;6.974;2022-12-07T16:48:29;7.10;99.90
8231;DHT22;4156;50.908;6.974;2022-12-07T16:50:55;7.10;99.90
8231;DHT22;4156;50.908;6.974;2022-12-07T16:53:23;7.10;99.90
8231;DHT22;4156;50.908;6.974;2022-12-07T16:55:49;7.10;99.90
8231;DHT22;4156;50.908;6.974;2022-12-07T16:58:15;7.10;99.90
8231;DHT22;4156;50.908;6.974;2022-12-07T17:00:42;7.10;99.90
8231;DHT22;4156;50.908;6.974;2022-12-07T17:03:08;7.10;99.90
8231;DHT22;4156;50.908;6.974;2022-12-07T17:05:39;7.00;99.90
8231;DHT22;4156;50.908;6.974;2022-12-07T17:08:05;7.00;99.90
8231;DHT22;4156;50.908;6.974;2022-12-07T17:10:33;7.00;99.90
8231;DHT22;4156;50.908;6.974;2022-12-07T17:13:01;7.00;99.90
8231;DHT22;4156;50.908;6.974;2022-12-07T17:15:26;7.00;99.90
8231;DHT22;4156;50.908;6.974;2022-12-07T17:17:54;7.00;99.90
8231;DHT22;4156;50.908;6.974;2022-12-07T17:20:21;7.00;99.90
8231;DHT22;4156;50.908;6.974;2022-12-07T17:22:47;7.00;99.90
8231;DHT22;4156;50.908;6.974;2022-12-07T17:25:13;7.00;99.90
8231;DHT22;4156;50.908;6.974;2022-12-07T17:27:39;7.00;99.90
8231;DHT22;4156;50.908;6.974;2022-12-07T17:30:05;7.00;99.90
8231;DHT22;4156;50.908;6.974;2022-12-07T17:32:31;7.00;99.90
8231;DHT22;4156;50.908;6.974;2022-12-07T17:34:57;7.00;99.90
8231;DHT22;4156;50.908;6.974;2022-12-07T17:37:22;7.00;99.90
8231;DHT22;4156;50.908;6.974;2022-12-07T17:39:48;7.00;99.90
8231;DHT22;4156;50.908;6.974;2022-12-07T17:42:14;7.00;99.90
8231;DHT22;4156;50.908;6.974;2022-12-07T17:44:58;7.00;99.90
8231;DHT22;4156;50.908;6.974;2022-12-07T17:47:23;7.00;99.90
8231;DHT22;4156;50.908;6.974;2022-12-07T17:49:49;7.00;99.90
8231;DHT22;4156;50.908;6.974;2022-12-07T17:52:14;7.00;99.90
8231;DHT22;4156;50.908;6.974;2022-12-07T17:54:59;7.00;99.90
8231;DHT22;4156;50.908;6.974;2022-12-07T17:57:24;7.00;99.90
8231;DHT22;4156;50.908;6.974;2022-12-07T17:59:50;7.00;99.90
8231;DHT22;4156;50.908;6.974;2022-12-07T18:02:16;7.00;99.90
8231;DHT22;4156;50.908;6.974;2022-12-07T18:04:42;7.00;99.90
8231;DHT22;4156;50.908;6.974;2022-12-07T18:07:09;7.00;99.90
8231;DHT22;4156;50.908;6.974;2022-12-07T18:09:34;7.00;99.90
8231;DHT22;4156;50.908;6.974;2022-12-07T18:12:01;7.00;99.90